Palmyra, Virginia
Current Conditions -  °F | °C
As of 4:35 PM on Saturday 25 Oct 2014 (Local Time) from KLKU Reporting Station
Clear Clear  
Wind Chill: 72°   Ceiling: Unl
Heat Index: 72°   Visibility: 10mi
Dew Point: 43°   Wind: 5mph
Humidity: 35%   Direction: 230°SW
Pressure: 29.82"   Gusts: NA
Location:  37.86°N, 78.26°W
Report Text: KLKU 252035Z AUTO 23004KT 10SM CLR 22/06 A2982 RMK AO2
Loading
Personal Weather Stations






























Interactive Weather Map
Tropical Storm Tracking
New forecast layout! Learn more

10-Day Weather Forecast

Advertisements
Track Severe Weather on mobile